Cornish, New Hampshire
Current Conditions -  °F | °C
As of 3:53 PM on Monday 24 Nov 2014 (Local Time) from KLEB Reporting Station
Broken Clouds Broken Clouds  
Wind Chill: 63°   Ceiling: 4700
Heat Index: 63°   Visibility: 10mi
Dew Point: 57°   Wind: 15mph
Humidity: 81%   Direction: 180°S
Pressure: 29.46"   Gusts: 24mph
Location:  43.5°N, 72.27°W
Report Text: KLEB 242053Z 18013G21KT 10SM FEW017 SCT038 BKN047 17/14 A2946 RMK AO2 SLP975 T01720139 56021
Loading
Personal Weather Stations






























Interactive Weather Map New forecast layout! Learn more

10-Day Weather Forecast

Advertisements
Track Severe Weather on mobile